Flight Track Log - Related Links

Times and Time Zones

All times are in EDT time to prevent confusion due to time zone crossing. See the SUB1290 flight status page for this flight to view local times or setup timezone preferences in your user account.

Time Position Orientation Groundspeed Altitude Reporting Facility
EDT Latitude Longitude Course Direction KTS MPH feet Rate Location/Type
Tue 12:04:18 AM 41.3086 -95.9069 North 116 133 1,700  Level Minneapolis Center
Tue 12:05:19 AM 41.3375 -95.9036 North 96 110 3,300 1,461 Climbing Minneapolis Center
Tue 12:06:13 AM 41.3628 -95.8956 13° North 103 119 4,500 1,252 Climbing Minneapolis Center
Tue 12:07:14 AM 41.3747 -95.8589 67° East 124 143 5,700 1,091 Climbing Minneapolis Center
Tue 12:08:03 AM 41.3742 -95.8214 91° East 149 171 6,500 936 Climbing Minneapolis Center
Tue 12:09:03 AM 41.3764 -95.7628 87° East 157 181 7,400 893 Climbing Minneapolis Center
Tue 12:10:04 AM 41.3808 -95.7039 84° East 161 185 8,300 889 Climbing Minneapolis Center
Tue 12:11:18 AM 41.3844 -95.6292 86° East 159 183 9,400 844 Climbing Minneapolis Center
Tue 12:12:19 AM 41.3872 -95.5672 87° East 162 186 10,200 836 Climbing Minneapolis Center
Tue 12:13:20 AM 41.3753 -95.5053 104° East 168 193 11,100 443 Climbing Minneapolis Center
Tue 12:14:21 AM 41.3628 -95.4369 104° East 178 205 11,100  Level Minneapolis Center
Tue 12:15:21 AM 41.3483 -95.3569 103° East 198 228 11,100 50 Level Minneapolis Center
Tue 12:16:22 AM 41.3342 -95.2761 103° East 213 245 11,200  Climbing Minneapolis Center
Tue 12:17:23 AM 41.3194 -95.1906 103° East 229 264 11,100  Descending Minneapolis Center
Tue 12:18:24 AM 41.3008 -95.1081 107° East 233 268 11,200  Climbing Minneapolis Center
Tue 12:19:25 AM 41.2836 -95.0075 103° East 233 268 11,100  Descending Minneapolis Center
Tue 12:20:25 AM 41.2681 -94.9267 104° East 229 264 11,200 50 Climbing Minneapolis Center
Tue 12:21:26 AM 41.2572 -94.8419 100° East 231 266 11,200  Level Minneapolis Center
Tue 12:22:27 AM 41.2472 -94.7572 99° East 232 267 11,200 -49 Level Minneapolis Center
Tue 12:23:28 AM 41.2372 -94.6703 99° East 236 272 11,100  Descending Minneapolis Center
Tue 12:24:28 AM 41.2208 -94.5881 105° East 232 267 11,200  Climbing Minneapolis Center
Tue 12:25:29 AM 41.2050 -94.5006 103° East 233 268 11,100 -49 Descending Minneapolis Center
Tue 12:26:30 AM 41.1892 -94.4178 104° East 232 267 11,100 -98 Level Minneapolis Center
Tue 12:27:31 AM 41.1761 -94.3336 102° East 234 269 10,900 -50 Descending Minneapolis Center
Tue 12:28:31 AM 41.1661 -94.2425 98° East 232 267 11,000 50 Climbing Minneapolis Center
Tue 12:29:32 AM 41.1519 -94.1625 103° East 226 260 11,000  Level Minneapolis Center
Tue 12:30:33 AM 41.1344 -94.0828 106° East 227 261 11,000  Level Minneapolis Center
Tue 12:31:33 AM 41.1147 -94.0050 109° East 224 258 11,000  Level Minneapolis Center
Tue 12:32:34 AM 41.1011 -93.9231 102° East 227 261 11,000 49 Level Minneapolis Center
Tue 12:33:35 AM 41.0844 -93.8436 106° East 226 260 11,100 98 Climbing Minneapolis Center
Tue 12:34:36 AM 41.0703 -93.7561 102° East 226 260 11,200  Climbing Minneapolis Center
Tue 12:35:36 AM 41.0567 -93.6742 102° East 228 262 11,100 -99 Descending Minneapolis Center
Tue 12:36:37 AM 41.0372 -93.5933 108° East 231 266 11,000  Descending Minneapolis Center
Tue 12:37:38 AM 41.0228 -93.5114 103° East 229 264 11,100 50 Climbing Minneapolis Center
Tue 12:38:38 AM 41.0147 -93.4281 97° East 230 265 11,100 -50 Level Minneapolis Center
Tue 12:39:39 AM 41.0003 -93.3411 102° East 226 260 11,000 -49 Descending Minneapolis Center
Tue 12:40:40 AM 40.9853 -93.2608 104° East 225 259 11,000  Level Minneapolis Center
Tue 12:41:40 AM 40.9708 -93.1808 103° East 224 258 11,000  Level Minneapolis Center
Tue 12:42:41 AM 40.9561 -93.1036 104° East 226 260 11,000 49 Level Minneapolis Center
Tue 12:43:42 AM 40.9400 -93.0211 104° East 225 259 11,100 50 Climbing Minneapolis Center
Tue 12:44:42 AM 40.9239 -92.9406 105° East 226 260 11,100  Level Minneapolis Center
Tue 12:45:43 AM 40.9133 -92.8575 100° East 229 264 11,100  Level Minneapolis Center
Tue 12:46:13 AM 40.9086 -92.8253 101° East 231 266 11,100  Level Chicago Center
Tue 12:47:14 AM 40.8878 -92.7292 106° East 228 262 11,100  Level Chicago Center
Tue 12:48:14 AM 40.8669 -92.6539 110° East 222 255 11,100  Level Chicago Center
Tue 12:49:27 AM 40.8497 -92.5594 104° East 222 255 11,100 -45 Level Chicago Center
Tue 12:50:27 AM 40.8286 -92.4897 112° Southeast 210 242 11,000 -50 Descending Chicago Center
Tue 12:51:27 AM 40.8097 -92.4228 110° East 200 230 11,000 -99 Level Chicago Center
Tue 12:52:28 AM 40.7969 -92.3533 104° East 195 224 10,800 -446 Descending Chicago Center
Tue 12:53:28 AM 40.7856 -92.2744 101° East 215 247 10,100 -650 Descending Chicago Center
Tue 12:54:28 AM 40.7733 -92.1925 101° East 227 261 9,500 -595 Descending Chicago Center
Tue 12:55:29 AM 40.7625 -92.1056 99° East 238 274 8,900 -446 Descending Chicago Center
Tue 12:56:29 AM 40.7494 -92.0208 101° East 238 274 8,600 -496 Descending Chicago Center
Tue 12:57:30 AM 40.7339 -91.9397 104° East 232 267 7,900 -609 Descending Chicago Center
Tue 12:58:37 AM 40.7181 -91.8575 104° East 232 267 7,300 -390 Descending Kansas City Center
Tue 12:59:33 AM 40.7008 -91.7767 106° East 231 266 7,100 -197 Descending Chicago Center
Tue 12:59:38 AM 40.7008 -91.7767 106° East 232 267 7,100  Level Kansas City Center
Tue 01:00:34 AM 40.6828 -91.7008 107° East 223 257 7,100 52 Level Chicago Center
Tue 01:01:34 AM 40.6650 -91.6264 107° East 217 250 7,200 50 Climbing Chicago Center
Tue 01:02:35 AM 40.6497 -91.5489 105° East 219 252 7,200  Level Chicago Center
Tue 01:03:35 AM 40.6311 -91.4547 105° East 222 255 7,200  Level Chicago Center
Tue 01:04:35 AM 40.6206 -91.3717 99° East 229 264 7,200  Level Chicago Center
Tue 01:05:36 AM 40.6106 -91.2922 99° East 228 262 7,200  Level Chicago Center
Tue 01:06:36 AM 40.5906 -91.2114 108° East 229 264 7,200 -50 Level Chicago Center
Tue 01:07:36 AM 40.5742 -91.1350 106° East 223 257 7,100 -50 Descending Chicago Center
Tue 01:08:37 AM 40.5581 -91.0597 106° East 217 250 7,100 -50 Level Chicago Center
Tue 01:09:37 AM 40.5417 -90.9853 106° East 215 247 7,000 50 Descending Chicago Center
Tue 01:10:38 AM 40.5286 -90.9128 103° East 210 242 7,200 99 Climbing Chicago Center
Tue 01:11:38 AM 40.5125 -90.8414 107° East 205 236 7,200 -50 Level Chicago Center
Tue 01:12:38 AM 40.5028 -90.7656 100° East 210 242 7,100  Descending Chicago Center
Tue 01:13:39 AM 40.4858 -90.6894 106° East 213 245 7,200  Climbing Chicago Center
Tue 01:14:39 AM 40.4725 -90.6161 103° East 208 239 7,100 -56 Descending Chicago Center
Tue 01:15:27 AM 40.4628 -90.5542 102° East 214 246 7,100  Level Chicago Center
Tue 01:16:28 AM 40.4406 -90.4833 112° Southeast 211 243 7,100 -50 Level Chicago Center
Tue 01:17:28 AM 40.4219 -90.4100 108° East 211 243 7,000 50 Descending Chicago Center
Tue 01:18:28 AM 40.4069 -90.3347 105° East 213 245 7,200 50 Climbing Chicago Center
Tue 01:19:29 AM 40.3950 -90.2533 101° East 223 257 7,100 -99 Descending Chicago Center
Tue 01:20:29 AM 40.3811 -90.1706 102° East 230 265 7,000 50 Descending Chicago Center
Tue 01:21:30 AM 40.3603 -90.0939 110° East 227 261 7,200 50 Climbing Chicago Center
Tue 01:22:30 AM 40.3411 -90.0161 108° East 226 260 7,100  Descending Chicago Center
Tue 01:23:30 AM 40.3247 -89.9333 105° East 230 265 7,200 99 Climbing Chicago Center
Tue 01:24:31 AM 40.3122 -89.8500 101° East 233 268 7,300 -99 Climbing Chicago Center
Tue 01:25:31 AM 40.2983 -89.7667 102° East 234 269 7,000 -150 Descending Chicago Center
Tue 01:26:31 AM 40.2769 -89.6889 110° East 231 266 7,000 50 Level Chicago Center
Tue 01:27:32 AM 40.2531 -89.5981 109° East 223 257 7,100 99 Climbing Chicago Center
Tue 01:28:32 AM 40.2364 -89.5194 105° East 224 258 7,200 50 Climbing Chicago Center
Tue 01:29:32 AM 40.2164 -89.4442 109° East 221 254 7,200 -50 Level Chicago Center
Tue 01:30:33 AM 40.1972 -89.3694 109° East 219 252 7,100 -50 Descending Chicago Center
Tue 01:31:33 AM 40.1822 -89.2956 105° East 214 246 7,100 -50 Level Chicago Center
Tue 01:32:33 AM 40.1653 -89.2247 107° East 207 238 7,000 50 Descending Chicago Center
Tue 01:33:34 AM 40.1519 -89.1533 104° East 205 236 7,200 99 Climbing Chicago Center
Tue 01:34:34 AM 40.1353 -89.0828 107° East 204 235 7,200 -50 Level Chicago Center
Tue 01:35:35 AM 40.1203 -89.0058 104° East 212 244 7,100 -73 Descending Chicago Center
Tue 01:35:56 AM 40.1164 -88.9903 108° East 215 247 7,100  Level Kansas City Center
Tue 01:36:54 AM 40.1003 -88.9136 105° East 220 253 7,100 51 Level Kansas City Center
Tue 01:37:54 AM 40.0819 -88.8386 108° East 218 251 7,200 50 Climbing Kansas City Center
Tue 01:38:54 AM 40.0611 -88.7622 110° East 222 255 7,200 -49 Level Kansas City Center
Tue 01:39:57 AM 40.0431 -88.6842 107° East 224 258 7,100 -97 Descending Kansas City Center
Tue 01:40:58 AM 40.0275 -88.6044 104° East 225 259 7,000 50 Descending Kansas City Center
Tue 01:41:56 AM 40.0119 -88.5269 105° East 225 259 7,200 100 Climbing Kansas City Center
Tue 01:42:58 AM 39.9947 -88.4514 107° East 221 254 7,200 -42 Level Kansas City Center
Tue 01:44:20 AM 39.9689 -88.3447 108° East 220 253 7,100 -61 Descending Kansas City Center
Tue 01:44:37 AM 39.9622 -88.3133 105° East 221 254 7,100  Level Chicago Center
Tue 01:45:37 AM 39.9450 -88.2350 106° East 223 257 7,100  Level Chicago Center
Tue 01:46:38 AM 39.9272 -88.1594 107° East 222 255 7,100  Level Chicago Center
Tue 01:47:38 AM 39.9025 -88.0881 114° Southeast 219 252 7,100  Level Chicago Center
Tue 01:48:38 AM 39.8842 -88.0128 108° East 218 251 7,100  Level Chicago Center
Tue 01:49:38 AM 39.8728 -87.9319 100° East 223 257 7,100 -50 Level Chicago Center
Tue 01:50:38 AM 39.8561 -87.8547 106° East 224 258 7,000  Descending Chicago Center
Tue 01:51:39 AM 39.8403 -87.7775 105° East 222 255 7,100 50 Climbing Chicago Center
Tue 01:52:39 AM 39.8208 -87.7011 108° East 222 255 7,100  Level Chicago Center
Tue 01:53:39 AM 39.8033 -87.6236 106° East 224 258 7,100  Level Chicago Center
Tue 01:54:39 AM 39.7828 -87.5528 111° Southeast 222 255 7,100  Level Chicago Center
Tue 01:55:39 AM 39.7647 -87.4778 107° East 221 254 7,100 46 Level Chicago Center
Tue 01:56:50 AM 39.7403 -87.3856 109° East 224 258 7,200 46 Climbing Indianapolis Center
Tue 01:57:50 AM 39.7189 -87.3097 110° East 224 258 7,200  Level Indianapolis Center
Tue 01:58:50 AM 39.6986 -87.2339 109° East 223 257 7,200  Level Indianapolis Center
Tue 01:59:51 AM 39.6789 -87.1564 108° East 223 257 7,200  Level Indianapolis Center
Tue 02:00:51 AM 39.6614 -87.0783 106° East 223 257 7,200  Level Indianapolis Center
Tue 02:01:51 AM 39.6481 -86.9986 102° East 224 258 7,200  Level Indianapolis Center
Tue 02:02:51 AM 39.6331 -86.9197 104° East 224 258 7,200  Level Indianapolis Center
Tue 02:03:52 AM 39.6069 -86.8447 114° Southeast 225 259 7,200  Level Indianapolis Center
Tue 02:04:52 AM 39.5861 -86.7678 109° East 225 259 7,200 -50 Level Indianapolis Center
Tue 02:05:52 AM 39.5703 -86.6881 104° East 226 260 7,100  Descending Indianapolis Center
Tue 02:06:52 AM 39.5542 -86.6081 105° East 227 261 7,200 50 Climbing Indianapolis Center
Tue 02:07:52 AM 39.5350 -86.5308 108° East 226 260 7,200 50 Level Indianapolis Center
Tue 02:08:53 AM 39.5119 -86.4575 112° Southeast 223 257 7,300 50 Climbing Indianapolis Center
Tue 02:09:53 AM 39.4919 -86.3803 109° East 224 258 7,300 -100 Level Indianapolis Center
Tue 02:10:53 AM 39.4731 -86.3039 108° East 223 257 7,100 -100 Descending Indianapolis Center
Tue 02:11:53 AM 39.4542 -86.2275 108° East 222 255 7,100 50 Level Indianapolis Center
Tue 02:12:53 AM 39.4378 -86.1517 106° East 221 254 7,200 99 Climbing Indianapolis Center
Tue 02:13:54 AM 39.4172 -86.0767 110° East 220 253 7,300 50 Climbing Indianapolis Center
Tue 02:14:54 AM 39.3964 -86.0028 110° East 219 252 7,300 -150 Level Indianapolis Center
Tue 02:15:54 AM 39.3733 -85.9281 112° Southeast 219 252 7,000 -150 Descending Indianapolis Center
Tue 02:16:54 AM 39.3517 -85.8506 110° East 222 255 7,000 100 Level Indianapolis Center
Tue 02:17:54 AM 39.3289 -85.7775 112° Southeast 222 255 7,200 50 Climbing Indianapolis Center
Tue 02:18:55 AM 39.3092 -85.7025 109° East 222 255 7,100 -50 Descending Indianapolis Center
Tue 02:19:55 AM 39.2953 -85.6217 102° East 227 261 7,100 50 Level Indianapolis Center
Tue 02:20:55 AM 39.2769 -85.5433 107° East 226 260 7,200 50 Climbing Indianapolis Center
Tue 02:21:55 AM 39.2581 -85.4675 108° East 225 259 7,200 50 Level Indianapolis Center
Tue 02:22:55 AM 39.2369 -85.3925 110° East 223 257 7,300  Climbing Indianapolis Center
Tue 02:23:56 AM 39.2172 -85.3231 110° East 220 253 7,200 -198 Descending Indianapolis Center
Tue 02:24:56 AM 39.1869 -85.2528 119° Southeast 219 252 6,900 -400 Descending Indianapolis Center
Tue 02:25:56 AM 39.1528 -85.1772 120° Southeast 224 258 6,400 -400 Descending Indianapolis Center
Tue 02:26:56 AM 39.1231 -85.1103 120° Southeast 225 259 6,100 -100 Descending Indianapolis Center
Tue 02:27:56 AM 39.0883 -85.0436 124° Southeast 224 258 6,200 -150 Climbing Indianapolis Center
Tue 02:28:56 AM 39.0583 -84.9803 121° Southeast 218 251 5,800 -298 Descending Indianapolis Center
Tue 02:29:57 AM 39.0294 -84.9183 121° Southeast 217 250 5,600 -980 Descending Indianapolis Center
Tue 02:30:34 AM 39.0500 -84.8667 63° Northeast 203 234 4,200 -1,670 Descending Cincinnati TRACON
Tue 02:31:34 AM 39.0500 -84.7833 90° East 194 223 2,900 -1,200 Descending Cincinnati TRACON
Tue 02:32:34 AM 39.0500 -84.7333 90° East 149 171 1,800 -1,100 Descending Cincinnati TRACON
Tue 02:34:00 AM 39.0333 -84.6667 113° Southeast  Level FlightAware Approximate
Tue 02:41:00 AM 39.0488 -84.6678 113° Southeast  Level Estimated

Login

Don't have an account? Register now (free) for customized features, flight alerts, and more!